Surrency, GA (31563)

9:15 AM EDT on July 11, 2014 (GMT -0400)
203 N (KGAMERSH2) Elev 197 ft | 31.58 °N, 82.32 °W | Change Station

Current weather conditions updated 2 seconds ago

Clear
Clear
78.7 °F
Feels Like 82 °F
N
1.2
Wind Variable Wind from SW
Gusts 1.2 mph

Today is forecast to be Cooler than yesterday. Thunderstorms developing in the afternoon.

Today
High -- | Low -- °F
--% Chance of Precip.
Yesterday
High -- | Low -- °F
Precip. -- in
6:31 AM 8:36 PM
Waxing Gibbous, 99% visible
Pressure 30.15 in
Visibility 9.0 miles
Clouds Clear
Heat Index 82 °F
Dew Point 75 °F
Humidity 89%
Rainfall 0.00 in
Snow Depth Not available.
UV 3 out of 12
Pollen 1.50 out of 12
Air Quality Not available.
Flu Activity Sporadic
METAR KAMG 111253Z AUTO 21003KT 9SM CLR 25/23 A3015 RMK AO2 SLP208 T02500233

More Conditions Fewer Conditions

Pressure 30.15 in
Visibility 9.0 miles
Clouds Clear
Heat Index 82 °F
Dew Point 75 °F
Humidity 89%
Rainfall 0.00 in
Snow Depth Not available.
UV 3 out of 12
Pollen 1.50 out of 12
Air Quality Not available.
Flu Activity Sporadic
METAR KAMG 111253Z AUTO 21003KT 9SM CLR 25/23 A3015 RMK AO2 SLP208 T02500233

More Conditions Fewer Conditions

10-Day Weather Forecast

Almanac

Astronomy

Jul. 11, 2014 Rise Set
Actual Time 6:31 AM EDT 8:36 PM EDT
Civil Twilight 6:04 AM EDT 9:04 PM EDT
Nautical Twilight 5:30 AM EDT 9:37 PM EDT
Astronomical Twilight 4:54 AM EDT 10:13 PM EDT
Moon 7:49 PM EDT 5:39 AM EDT
Length of Visible Light 14h 59m
Length of Day
14h 04m
Tomorrow will be 0m 50s shorter.
Waxing Gibbous, 99% of the Moon is Illuminated
Today
Waxing Gibbous
Jul 12
Full
Jul 18
Last Quarter
Jul 26
New
Aug 3
First Quarter

Today's Extremes

State Highs State Lows

Community

WunderPhotos

Upload Photos

1,732,448 photos uploaded!

Nearby

Snow Depth

Station Depth Elevation
No new snow has been reported.

Earthquake Activity

City Distance Mag. Time & Date
No recent earthquake activity has been reported nearby.
Minimum magnitude displayed is 2.5.

Coastal Water Temperatures

Place Temperature
No Stations Reporting

Nearby Weather Stations

Station Location Temp. Heat Index Dew Point Humidity Wind Precip. Elev Updated Type
203 N, Mershon, GA 78.7 °F 82 °F 75 °F 89% SW  at  1.2 mph 0.00 in / hr 197 ft 9:15 AM EDT Rapid Fire
RAWS BAXLEY GA, Baxley, GA 74 °F 71 °F 73 °F 97% NNE  at  3 mph 0.00 in / hr 194 ft 8:04 AM EDT MADIS
Appling, Baxley, GA 77.4 °F 79 °F 77 °F 99% South  at  3.8 mph 0.00 in / hr 203 ft 9:15 AM EDT Rapid Fire
Wayne Terrace, Jesup, GA 78.4 °F 82 °F 76 °F 92% SSW  at  0.0 mph 0.00 in / hr 131 ft 9:15 AM EDT Normal

Show More Stations Show Fewer Stations